Time;durP1;ratioP1;P1;durP2;ratioP2;P2;SDS_P1;SDS_P2;PMS_P1;PMS_P2;Temp;Humidity;BMP_temperature;BMP_pressure;BME280_temperature;BME280_humidity;BME280_pressure;Samples;Min_cycle;Max_cycle;Signal;HPM_P1;HPM_P2
2022/06/01 00:01:20;;;;;;;3.50;3.20;;;;;;;17.24;52.93;97244.72;5066450;28;20216;-69
2022/06/01 00:03:46;;;;;;;3.50;3.20;;;;;;;17.20;52.89;97246.09;5072722;28;20204;-70
2022/06/01 00:06:12;;;;;;;3.73;3.30;;;;;;;17.09;53.29;97244.78;5072300;28;20516;-70
2022/06/01 00:08:38;;;;;;;3.27;2.70;;;;;;;17.09;53.52;97251.94;5072220;28;20243;-72
2022/06/01 00:11:04;;;;;;;5.53;3.50;;;;;;;16.90;53.37;97243.59;5072456;28;20178;-72
2022/06/01 00:13:29;;;;;;;3.40;3.10;;;;;;;16.91;53.46;97242.59;5071966;28;21026;-70
2022/06/01 00:15:55;;;;;;;5.10;3.30;;;;;;;16.95;53.70;97237.78;5064210;28;20190;-70
2022/06/01 00:18:22;;;;;;;8.50;3.20;;;;;;;16.91;53.59;97234.66;5057158;28;20214;-71
2022/06/01 00:20:48;;;;;;;3.30;3.00;;;;;;;16.95;53.58;97241.25;5072417;28;20713;-70
2022/06/01 00:23:14;;;;;;;5.00;3.30;;;;;;;16.98;53.49;97243.53;5071934;28;20543;-69
2022/06/01 00:25:41;;;;;;;4.37;2.90;;;;;;;16.92;53.57;97233.66;5072479;28;20928;-69
2022/06/01 00:28:07;;;;;;;4.30;3.20;;;;;;;16.94;53.53;97236.97;5071393;28;20468;-71
2022/06/01 00:30:33;;;;;;;4.77;3.30;;;;;;;16.86;53.86;97237.06;5066870;28;20931;-73
2022/06/01 00:32:58;;;;;;;6.97;3.30;;;;;;;16.80;53.65;97251.06;5071477;28;20429;-71
2022/06/01 00:35:24;;;;;;;4.13;3.73;;;;;;;16.80;53.97;97241.31;5067240;28;20244;-70
2022/06/01 00:37:50;;;;;;;4.53;3.33;;;;;;;16.82;53.85;97254.34;5071983;28;20190;-69
2022/06/01 00:40:17;;;;;;;4.90;3.50;;;;;;;16.74;53.86;97248.19;5069853;28;20191;-71
2022/06/01 00:42:46;;;;;;;4.93;3.00;;;;;;;16.70;53.99;97252.22;5071982;28;20536;-70
2022/06/01 00:45:13;;;;;;;3.90;3.27;;;;;;;16.67;53.81;97252.59;5071675;28;20466;-70
2022/06/01 00:47:39;;;;;;;6.67;3.63;;;;;;;16.70;54.15;97249.56;5071160;28;20472;-69
2022/06/01 00:50:33;;;;;;;3.97;3.50;;;;;;;16.62;53.85;97248.88;5070734;28;20790;-70
2022/06/01 00:53:09;;;;;;;4.90;3.30;;;;;;;16.55;53.96;97251.47;5071757;28;20239;-69
2022/06/01 00:55:39;;;;;;;6.00;3.40;;;;;;;16.54;54.07;97247.16;5070454;28;20931;-69
2022/06/01 00:58:08;;;;;;;3.70;3.40;;;;;;;16.59;53.87;97244.78;5071097;28;20421;-69
2022/06/01 01:00:35;;;;;;;3.43;3.03;;;;;;;16.57;53.84;97257.38;5060021;28;20476;-70
2022/06/01 01:03:03;;;;;;;7.10;3.20;;;;;;;16.54;53.81;97248.00;5071485;28;20424;-69
2022/06/01 01:05:30;;;;;;;4.50;3.20;;;;;;;16.39;54.07;97250.69;5070247;28;20432;-69
2022/06/01 01:07:58;;;;;;;5.87;3.70;;;;;;;16.32;54.62;97255.09;5070440;28;20530;-69
2022/06/01 01:10:23;;;;;;;5.30;3.30;;;;;;;16.33;54.35;97254.09;5070018;28;21054;-70
2022/06/01 01:12:58;;;;;;;4.23;3.53;;;;;;;16.27;55.06;97252.19;5071300;28;20507;-69
2022/06/01 01:15:27;;;;;;;6.30;3.57;;;;;;;16.30;54.79;97246.53;5071462;28;20535;-69
2022/06/01 01:17:54;;;;;;;3.87;3.43;;;;;;;16.28;54.80;97249.38;5061373;28;20478;-69
2022/06/01 01:20:20;;;;;;;5.13;3.80;;;;;;;16.15;55.10;97248.41;5069957;28;20460;-70
2022/06/01 01:23:02;;;;;;;5.77;2.70;;;;;;;16.16;55.25;97235.00;5071218;28;20433;-70
2022/06/01 01:25:34;;;;;;;3.60;3.30;;;;;;;16.21;55.37;97243.19;5062506;28;20459;-70
2022/06/01 01:28:02;;;;;;;4.93;3.70;;;;;;;16.28;54.76;97245.91;5062155;28;21041;-70
2022/06/01 01:30:37;;;;;;;4.37;3.97;;;;;;;16.22;54.97;97244.03;5050221;28;20429;-70
2022/06/01 01:33:09;;;;;;;4.50;3.70;;;;;;;16.20;55.06;97246.03;5070803;28;20439;-71
2022/06/01 01:35:35;;;;;;;9.77;3.50;;;;;;;16.17;55.21;97239.31;5066730;28;20464;-73
2022/06/01 01:38:06;;;;;;;6.87;3.77;;;;;;;16.21;54.80;97242.38;5070638;28;20429;-71
2022/06/01 01:40:32;;;;;;;5.03;3.70;;;;;;;16.11;55.20;97238.22;5056506;28;20554;-70
2022/06/01 01:42:59;;;;;;;4.03;3.20;;;;;;;16.10;55.25;97241.03;5070278;28;20512;-70
2022/06/01 01:45:28;;;;;;;3.80;3.50;;;;;;;16.04;55.45;97239.16;5069588;28;20424;-69
2022/06/01 01:47:53;;;;;;;11.60;3.70;;;;;;;15.96;55.52;97240.06;5070817;28;20982;-70
2022/06/01 01:50:19;;;;;;;4.43;3.80;;;;;;;15.99;55.77;97242.34;5070673;28;20432;-70
2022/06/01 01:52:45;;;;;;;4.60;3.77;;;;;;;15.94;55.46;97242.88;5070973;28;20270;-69
2022/06/01 01:55:32;;;;;;;3.90;3.47;;;;;;;15.97;55.54;97244.38;5071034;28;20532;-69
2022/06/01 01:58:16;;;;;;;3.87;3.47;;;;;;;15.99;55.50;97242.34;5069668;28;20467;-71
2022/06/01 02:00:51;;;;;;;3.57;3.27;;;;;;;16.04;54.92;97242.59;5060843;28;20484;-70
2022/06/01 02:03:26;;;;;;;9.80;3.60;;;;;;;16.00;55.13;97241.34;5069151;28;20444;-69
2022/06/01 02:06:12;;;;;;;6.03;3.40;;;;;;;15.99;55.23;97250.28;5069632;28;20427;-71
2022/06/01 02:08:41;;;;;;;7.60;3.50;;;;;;;15.94;55.09;97258.75;5069402;28;20421;-70
2022/06/01 02:14:38;;;;;;;4.20;3.50;;;;;;;15.89;55.18;97249.72;5069811;28;20444;-70
2022/06/01 02:17:10;;;;;;;3.80;3.10;;;;;;;15.89;54.96;97249.72;5044209;28;20937;-71
2022/06/01 02:19:37;;;;;;;4.80;4.00;;;;;;;15.80;55.44;97246.38;5053891;28;20416;-69
2022/06/01 02:22:03;;;;;;;5.03;3.53;;;;;;;15.79;55.22;97247.38;5070345;28;20435;-70
2022/06/01 02:24:29;;;;;;;3.70;3.40;;;;;;;15.81;55.35;97242.72;5061521;28;20452;-70
2022/06/01 02:26:55;;;;;;;4.43;3.43;;;;;;;15.71;55.31;97243.00;5070354;28;20464;-70
2022/06/01 02:29:28;;;;;;;5.03;3.40;;;;;;;15.64;55.38;97247.38;5070257;28;20451;-69
2022/06/01 02:31:55;;;;;;;4.27;3.50;;;;;;;15.63;55.34;97240.44;5065371;28;20441;-70
2022/06/01 02:34:21;;;;;;;4.50;3.43;;;;;;;15.57;55.39;97247.28;5068582;28;20986;-70
2022/06/01 02:36:47;;;;;;;4.60;3.80;;;;;;;15.46;55.72;97239.81;5065477;28;20421;-70
2022/06/01 02:39:14;;;;;;;5.57;2.90;;;;;;;15.45;55.56;97246.94;5068390;28;20433;-69
2022/06/01 02:44:24;;;;;;;7.70;3.20;;;;;;;15.42;55.82;97244.66;5070212;28;20451;-70
2022/06/01 02:46:50;;;;;;;3.20;2.90;;;;;;;15.42;55.73;97246.50;5070059;28;20451;-70
2022/06/01 02:49:17;;;;;;;4.83;3.67;;;;;;;15.36;55.87;97242.75;5069126;28;20175;-71
2022/06/01 02:51:44;;;;;;;5.37;4.13;;;;;;;15.34;55.78;97247.41;5072967;28;20182;-69
2022/06/01 02:54:10;;;;;;;7.23;5.00;;;;;;;15.24;55.54;97249.50;5063884;28;20499;-69
2022/06/01 02:56:35;;;;;;;8.47;4.40;;;;;;;15.25;56.06;97259.84;5073917;28;20417;-69
2022/06/01 02:59:01;;;;;;;8.73;3.67;;;;;;;15.31;55.89;97250.38;5073089;28;20496;-69
2022/06/01 03:01:26;;;;;;;6.90;4.33;;;;;;;15.33;55.39;97248.38;5068486;28;20194;-70
2022/06/01 03:03:53;;;;;;;4.93;4.40;;;;;;;15.31;55.75;97250.38;5074046;28;20226;-70
2022/06/01 03:06:19;;;;;;;4.30;3.87;;;;;;;15.31;55.44;97238.00;5073020;28;20202;-70
2022/06/01 03:08:45;;;;;;;5.67;4.13;;;;;;;15.26;55.75;97248.28;5063348;28;20449;-72
2022/06/01 03:11:12;;;;;;;4.47;3.43;;;;;;;15.25;55.87;97243.22;5060365;28;20441;-71
2022/06/01 03:13:38;;;;;;;10.43;4.30;;;;;;;15.26;55.71;97244.81;5064471;28;20988;-70
2022/06/01 03:16:04;;;;;;;5.80;3.80;;;;;;;15.27;55.83;97241.19;5062854;28;20422;-69
2022/06/01 03:18:31;;;;;;;5.23;4.80;;;;;;;15.15;55.76;97244.28;5053118;28;20232;-70
2022/06/01 03:20:57;;;;;;;5.80;4.10;;;;;;;15.15;56.15;97248.75;5037682;28;20180;-70
2022/06/01 03:23:24;;;;;;;5.63;4.20;;;;;;;15.11;56.24;97243.00;5064457;28;20448;-71
2022/06/01 03:25:50;;;;;;;4.07;3.70;;;;;;;15.08;56.14;97248.63;5075818;28;20444;-71
2022/06/01 03:28:16;;;;;;;6.83;4.03;;;;;;;15.14;56.07;97258.47;5067273;28;20460;-70
2022/06/01 03:30:43;;;;;;;5.40;4.90;;;;;;;15.20;56.04;97251.66;5060642;28;20517;-71
2022/06/01 03:33:15;;;;;;;9.50;4.50;;;;;;;15.17;55.80;97247.56;5037350;28;20255;-71
2022/06/01 03:35:41;;;;;;;5.60;5.07;;;;;;;15.07;56.08;97246.16;5054346;28;20479;-70
2022/06/01 03:38:07;;;;;;;5.03;3.77;;;;;;;15.03;56.20;97254.47;5072203;28;20554;-71
2022/06/01 03:40:34;;;;;;;7.57;4.30;;;;;;;15.06;56.31;97253.28;5056883;28;20179;-71
2022/06/01 03:43:00;;;;;;;3.93;3.60;;;;;;;15.12;55.98;97252.53;5055090;28;20211;-69
2022/06/01 03:48:32;;;;;;;5.70;4.70;;;;;;;14.80;56.92;97254.50;5023406;28;20480;-70
2022/06/01 03:50:58;;;;;;;6.63;3.93;;;;;;;14.90;56.71;97249.78;5033175;28;20512;-71
2022/06/01 03:53:24;;;;;;;4.63;3.73;;;;;;;14.96;56.45;97255.34;5043753;28;20449;-70
2022/06/01 03:55:51;;;;;;;5.60;4.57;;;;;;;14.99;56.49;97255.00;5061478;28;20437;-69
2022/06/01 03:58:20;;;;;;;5.70;4.50;;;;;;;14.98;56.42;97258.63;5055993;28;20867;-69
2022/06/01 04:00:46;;;;;;;8.33;4.27;;;;;;;14.80;56.83;97261.59;5071909;28;20420;-69
2022/06/01 04:03:12;;;;;;;5.80;3.90;;;;;;;14.76;57.14;97266.38;5072302;28;20794;-71
2022/06/01 04:05:38;;;;;;;5.00;4.50;;;;;;;14.86;56.78;97264.34;5067999;28;20183;-70
2022/06/01 04:08:05;;;;;;;4.93;4.30;;;;;;;14.93;57.13;97271.53;5060938;28;20210;-68
2022/06/01 04:10:33;;;;;;;7.10;4.50;;;;;;;15.01;56.93;97267.00;5072617;28;20482;-69
2022/06/01 04:12:58;;;;;;;5.07;4.50;;;;;;;14.96;57.09;97266.72;5059085;28;20433;-69
2022/06/01 04:15:24;;;;;;;4.33;3.90;;;;;;;15.01;57.12;97268.81;5061777;28;20425;-69
2022/06/01 04:17:49;;;;;;;4.70;4.20;;;;;;;15.07;57.02;97268.13;5071926;28;20548;-69
2022/06/01 04:20:15;;;;;;;4.30;3.90;;;;;;;15.08;56.92;97269.75;5070066;28;20187;-69
2022/06/01 04:22:42;;;;;;;6.33;4.50;;;;;;;15.02;57.38;97265.19;5062117;28;20210;-69
2022/06/01 04:25:09;;;;;;;7.60;4.80;;;;;;;15.07;57.49;97268.13;5064724;28;20216;-71
2022/06/01 04:27:35;;;;;;;4.37;4.00;;;;;;;15.04;57.64;97263.19;5071578;28;20534;-69
2022/06/01 04:30:01;;;;;;;7.40;4.40;;;;;;;15.10;57.52;97262.47;5071796;28;20927;-69
2022/06/01 04:32:29;;;;;;;5.43;4.27;;;;;;;15.17;57.55;97273.94;5062695;28;20436;-69
2022/06/01 04:34:54;;;;;;;5.80;4.27;;;;;;;15.18;57.45;97259.75;5068276;28;20221;-69
2022/06/01 04:37:20;;;;;;;9.20;4.33;;;;;;;15.17;57.59;97260.75;5070212;28;20915;-69
2022/06/01 04:39:45;;;;;;;4.60;4.20;;;;;;;15.27;57.63;97267.59;5064355;28;20241;-68
2022/06/01 04:42:11;;;;;;;4.57;4.10;;;;;;;15.38;57.42;97266.31;5062682;28;20186;-69
2022/06/01 04:44:36;;;;;;;5.10;4.60;;;;;;;15.42;57.35;97257.84;5071452;28;20206;-71
2022/06/01 04:47:04;;;;;;;5.20;4.57;;;;;;;15.47;57.25;97268.72;5071273;28;20743;-70
2022/06/01 04:49:29;;;;;;;4.50;4.00;;;;;;;15.46;57.69;97272.34;5060214;28;20669;-70
2022/06/01 04:51:55;;;;;;;8.83;5.07;;;;;;;15.48;57.80;97266.88;5058669;28;20425;-70
2022/06/01 04:54:20;;;;;;;4.50;4.10;;;;;;;15.57;57.94;97267.59;5070841;28;20684;-70
2022/06/01 04:56:46;;;;;;;5.70;4.27;;;;;;;15.64;57.69;97273.78;5066116;28;20646;-70
2022/06/01 04:59:11;;;;;;;6.50;4.20;;;;;;;15.73;57.55;97271.88;5060059;28;20200;-70
2022/06/01 05:01:37;;;;;;;7.53;4.60;;;;;;;15.76;57.27;97267.03;5058641;28;20527;-70
2022/06/01 05:04:02;;;;;;;7.37;4.63;;;;;;;15.84;57.77;97262.66;5067720;28;20635;-71
2022/06/01 05:06:28;;;;;;;6.20;4.00;;;;;;;15.91;57.87;97259.13;5071042;28;20186;-70
2022/06/01 05:08:53;;;;;;;4.27;3.87;;;;;;;16.00;57.54;97253.75;5071594;28;20175;-69
2022/06/01 05:11:19;;;;;;;7.70;4.40;;;;;;;16.01;57.89;97250.91;5057988;28;20191;-70
2022/06/01 05:13:46;;;;;;;4.27;3.70;;;;;;;16.08;58.16;97249.16;5070096;28;20198;-69
2022/06/01 05:16:11;;;;;;;4.20;3.80;;;;;;;16.18;58.11;97255.97;5072126;28;20511;-69
2022/06/01 05:18:38;;;;;;;6.03;4.20;;;;;;;16.28;58.23;97254.66;5071457;28;20435;-70
2022/06/01 05:21:04;;;;;;;3.70;3.40;;;;;;;16.40;57.97;97252.34;5048009;28;20183;-69
2022/06/01 05:23:30;;;;;;;4.57;3.23;;;;;;;16.51;57.63;97253.66;5070699;28;21060;-72
2022/06/01 05:25:55;;;;;;;5.60;4.30;;;;;;;16.62;57.81;97249.72;5064583;28;20178;-71
2022/06/01 05:28:25;;;;;;;5.77;4.00;;;;;;;16.77;57.66;97249.63;5071030;28;20344;-70
2022/06/01 05:30:51;;;;;;;4.90;3.50;;;;;;;16.91;57.32;97245.25;5057622;28;20676;-67
2022/06/01 05:33:16;;;;;;;4.93;3.30;;;;;;;17.08;57.25;97250.28;5061169;28;20441;-70
2022/06/01 05:35:43;;;;;;;4.27;2.90;;;;;;;17.23;56.82;97252.84;5057776;28;20438;-70
2022/06/01 05:38:08;;;;;;;4.30;3.33;;;;;;;17.35;55.11;97257.41;5068013;28;20174;-69
2022/06/01 05:40:34;;;;;;;5.10;3.30;;;;;;;17.53;54.75;97256.06;5069125;28;20912;-69
2022/06/01 05:43:00;;;;;;;3.33;2.90;;;;;;;17.69;54.46;97254.13;5071171;28;20255;-70
2022/06/01 05:45:26;;;;;;;3.40;3.10;;;;;;;17.83;53.99;97257.66;5062946;28;20178;-71
2022/06/01 05:47:51;;;;;;;6.50;3.37;;;;;;;17.91;53.64;97257.50;5071408;28;20677;-70
2022/06/01 05:50:17;;;;;;;5.10;3.23;;;;;;;18.05;53.22;97250.41;5062563;28;20863;-71
2022/06/01 05:52:43;;;;;;;8.23;3.87;;;;;;;18.22;52.56;97253.53;5071100;28;20645;-70
2022/06/01 05:55:10;;;;;;;7.77;3.30;;;;;;;18.42;52.50;97248.25;5070688;28;20241;-69
2022/06/01 05:57:36;;;;;;;3.70;2.70;;;;;;;18.59;52.06;97248.69;5070514;28;20181;-70
2022/06/01 06:00:05;;;;;;;4.17;3.20;;;;;;;18.79;51.85;97251.38;5057660;28;20427;-70
2022/06/01 06:02:30;;;;;;;3.37;2.90;;;;;;;18.97;51.72;97260.59;5056009;28;20205;-69
2022/06/01 06:04:56;;;;;;;6.73;3.03;;;;;;;19.13;51.10;97262.84;5071029;28;20643;-69
2022/06/01 06:07:21;;;;;;;4.13;2.77;;;;;;;19.26;50.47;97262.00;5062253;28;20580;-70
2022/06/01 06:09:47;;;;;;;3.50;2.80;;;;;;;19.42;49.97;97257.28;5071025;28;20195;-69
2022/06/01 06:12:12;;;;;;;5.50;2.90;;;;;;;19.57;49.69;97251.72;5070616;28;20201;-71
2022/06/01 06:14:38;;;;;;;2.90;2.70;;;;;;;19.72;49.31;97251.50;5070986;28;20206;-71
2022/06/01 06:17:04;;;;;;;5.43;2.40;;;;;;;19.83;48.72;97250.00;5057808;28;20637;-69
2022/06/01 06:19:29;;;;;;;3.23;2.60;;;;;;;19.98;48.63;97263.88;5071029;28;20182;-68
2022/06/01 06:21:55;;;;;;;4.70;3.07;;;;;;;20.06;48.28;97255.66;5071127;28;20178;-72
2022/06/01 06:24:21;;;;;;;4.83;2.50;;;;;;;20.21;47.85;97259.88;5070447;28;20202;-70
2022/06/01 06:26:47;;;;;;;6.80;2.80;;;;;;;20.26;47.44;97249.44;5073622;28;20249;-71
2022/06/01 06:29:14;;;;;;;6.37;2.63;;;;;;;20.32;47.34;97256.53;5074508;28;20581;-71
2022/06/01 06:31:40;;;;;;;4.47;2.33;;;;;;;20.49;46.93;97250.72;5047885;28;20533;-72
2022/06/01 06:34:06;;;;;;;4.10;2.73;;;;;;;20.67;46.90;97253.44;5074024;28;20475;-69
2022/06/01 06:36:31;;;;;;;4.03;2.40;;;;;;;20.76;46.50;97253.22;5063589;28;20273;-69
2022/06/01 06:38:57;;;;;;;5.13;3.00;;;;;;;20.86;46.26;97250.88;5072721;28;20182;-69
2022/06/01 06:41:23;;;;;;;3.33;2.27;;;;;;;20.86;46.49;97248.22;5071497;28;20179;-69
2022/06/01 06:43:49;;;;;;;5.10;2.50;;;;;;;20.95;46.02;97244.25;5074250;28;20206;-69
2022/06/01 06:46:16;;;;;;;4.00;2.40;;;;;;;21.21;46.02;97246.91;5073886;28;20466;-70
2022/06/01 06:48:44;;;;;;;2.47;2.10;;;;;;;21.29;45.76;97243.94;5073814;28;20646;-70
2022/06/01 06:51:10;;;;;;;4.70;2.87;;;;;;;21.44;44.73;97240.91;5064971;28;20793;-70
2022/06/01 06:53:36;;;;;;;4.90;3.00;;;;;;;21.42;44.92;97249.16;5061142;28;20452;-70
2022/06/01 06:56:02;;;;;;;6.80;2.43;;;;;;;21.53;44.60;97250.28;5070554;28;20424;-71
2022/06/01 06:58:28;;;;;;;6.03;2.73;;;;;;;21.63;43.79;97255.09;5064117;28;20175;-70
2022/06/01 07:00:54;;;;;;;7.10;2.20;;;;;;;21.77;44.06;97250.44;5063512;28;20439;-69
2022/06/01 07:03:19;;;;;;;4.00;2.57;;;;;;;21.80;43.69;97247.31;5063718;28;20345;-70
2022/06/01 07:08:29;;;;;;;4.07;2.50;;;;;;;22.01;43.13;97247.91;5063075;28;20202;-71
2022/06/01 07:10:55;;;;;;;4.40;2.47;;;;;;;22.06;42.72;97248.84;5064022;28;20431;-69
2022/06/01 07:13:24;;;;;;;4.20;2.77;;;;;;;22.06;42.36;97242.69;5063571;28;20206;-70
2022/06/01 07:16:04;;;;;;;2.70;2.17;;;;;;;22.19;42.38;97237.19;5066993;28;20511;-69
2022/06/01 07:18:29;;;;;;;5.33;2.50;;;;;;;22.04;42.45;97245.59;5065514;28;20428;-69
2022/06/01 07:20:55;;;;;;;4.20;2.40;;;;;;;21.85;42.25;97241.34;5073580;28;20429;-69
2022/06/01 07:23:20;;;;;;;2.93;2.43;;;;;;;22.22;42.71;97244.75;5073644;28;20289;-70
2022/06/01 07:25:46;;;;;;;2.23;2.03;;;;;;;22.43;42.20;97242.63;5073238;28;20227;-69
2022/06/01 07:28:11;;;;;;;8.10;2.20;;;;;;;22.33;40.87;97250.34;5063740;28;20221;-69
2022/06/01 07:30:36;;;;;;;3.53;2.50;;;;;;;22.21;40.22;97252.97;5060208;28;20179;-70
2022/06/01 07:33:02;;;;;;;4.03;2.53;;;;;;;22.30;41.01;97251.63;5052787;28;20538;-70
2022/06/01 07:35:28;;;;;;;3.00;2.30;;;;;;;22.61;41.03;97255.13;5065393;28;20194;-69
2022/06/01 07:43:22;;;;;;;4.80;2.13;;;;;;;23.21;40.53;97252.53;5072966;28;20804;-70
2022/06/01 07:45:49;;;;;;;5.73;2.47;;;;;;;23.09;40.65;97252.50;5073175;28;20443;-70
2022/06/01 07:48:14;;;;;;;3.63;2.43;;;;;;;23.32;40.74;97259.72;5071611;28;20456;-69
2022/06/01 07:50:40;;;;;;;2.60;2.30;;;;;;;23.51;40.42;97262.28;5073272;28;20429;-70
2022/06/01 07:53:07;;;;;;;4.37;2.30;;;;;;;23.67;40.23;97263.41;5072745;28;20186;-69
2022/06/01 07:55:34;;;;;;;1.87;1.77;;;;;;;23.87;39.18;97255.00;5055032;28;20209;-69
2022/06/01 07:58:00;;;;;;;3.33;1.97;;;;;;;24.04;34.95;97253.25;5072692;28;20938;-70
2022/06/01 08:00:26;;;;;;;2.07;1.90;;;;;;;24.15;34.71;97250.75;5057820;28;20498;-70
2022/06/01 08:02:52;;;;;;;3.50;1.83;;;;;;;24.26;34.43;97244.53;5071669;28;20920;-69
2022/06/01 08:05:18;;;;;;;6.43;1.97;;;;;;;24.26;33.68;97241.06;5072541;28;20229;-69
2022/06/01 08:07:45;;;;;;;6.20;1.87;;;;;;;24.46;33.00;97246.78;5072561;28;20472;-70
2022/06/01 08:10:13;;;;;;;3.57;2.07;;;;;;;24.62;31.08;97245.16;5064516;28;20428;-70
2022/06/01 08:15:24;;;;;;;1.57;1.47;;;;;;;24.77;28.16;97241.16;5064222;28;20456;-70
2022/06/01 08:17:49;;;;;;;2.00;1.60;;;;;;;24.97;28.62;97238.78;5072472;28;20445;-71
2022/06/01 08:20:16;;;;;;;5.00;1.40;;;;;;;25.17;29.01;97234.81;5064398;28;20190;-70
2022/06/01 08:22:42;;;;;;;2.00;1.57;;;;;;;25.33;28.63;97232.34;5067029;28;20183;-70
2022/06/01 08:25:10;;;;;;;2.70;1.47;;;;;;;25.27;28.75;97228.75;5068921;28;20539;-69
2022/06/01 08:27:35;;;;;;;1.67;1.57;;;;;;;25.51;29.05;97228.59;5064985;28;20913;-69
2022/06/01 08:30:01;;;;;;;3.53;1.53;;;;;;;25.68;28.48;97241.94;5051433;28;20442;-68
2022/06/01 08:32:26;;;;;;;4.03;1.90;;;;;;;25.79;28.25;97224.91;5071931;28;20197;-68
2022/06/01 08:34:52;;;;;;;6.27;1.53;;;;;;;25.33;28.33;97232.34;5068986;28;20207;-69
2022/06/01 08:37:17;;;;;;;2.43;1.47;;;;;;;25.22;29.00;97234.84;5062384;28;20178;-69
2022/06/01 08:39:43;;;;;;;14.00;1.90;;;;;;;24.75;30.14;97238.72;5060698;28;20313;-70
2022/06/01 08:42:14;;;;;;;3.70;1.50;;;;;;;25.36;29.79;97231.81;5070862;28;20178;-70
2022/06/01 08:44:42;;;;;;;3.07;1.70;;;;;;;24.98;29.39;97234.25;5071188;28;20441;-69
2022/06/01 08:47:11;;;;;;;5.17;1.57;;;;;;;25.41;29.24;97239.97;5069746;28;20893;-70
2022/06/01 08:49:38;;;;;;;2.40;1.77;;;;;;;25.47;28.95;97240.88;5058824;28;20436;-69
2022/06/01 08:52:04;;;;;;;3.00;1.50;;;;;;;25.41;28.88;97243.47;5067316;28;20420;-69
2022/06/01 08:54:29;;;;;;;3.27;1.83;;;;;;;25.64;28.66;97260.41;5066832;28;20476;-70
2022/06/01 08:57:06;;;;;;;3.33;1.37;;;;;;;26.01;28.18;97250.91;5060060;28;21081;-69
2022/06/01 08:59:54;;;;;;;4.10;1.30;;;;;;;26.22;27.02;97244.72;5051150;28;20252;-69
2022/06/01 09:02:34;;;;;;;2.60;1.30;;;;;;;26.40;26.96;97234.69;5069695;28;20805;-69
2022/06/01 09:05:06;;;;;;;2.40;2.20;;;;;;;26.40;26.38;97240.06;5071610;28;20437;-69
2022/06/01 09:07:39;;;;;;;4.30;1.47;;;;;;;26.55;25.74;97246.66;5054540;28;21029;-70
2022/06/01 09:10:48;;;;;;;3.00;1.47;;;;;;;26.45;25.82;97255.44;5070338;28;20436;-69
2022/06/01 09:13:26;;;;;;;2.30;1.53;;;;;;;26.40;26.04;97258.09;5071720;28;20511;-69
2022/06/01 09:15:59;;;;;;;1.60;1.20;;;;;;;26.20;25.95;97270.22;5071910;28;20412;-70
2022/06/01 09:18:28;;;;;;;2.13;1.43;;;;;;;26.05;26.59;97262.78;5071047;28;20432;-70
2022/06/01 09:23:46;;;;;;;1.37;1.20;;;;;;;26.10;25.34;97256.66;5056022;28;20454;-69
2022/06/01 09:26:28;;;;;;;7.43;1.13;;;;;;;26.03;24.86;97257.66;5070980;28;20842;-69
2022/06/01 09:28:56;;;;;;;2.60;1.50;;;;;;;25.35;24.94;97257.03;5069769;28;20440;-69
2022/06/01 09:31:40;;;;;;;5.33;1.40;;;;;;;25.37;25.58;97254.91;5057019;28;20515;-69
2022/06/01 09:34:22;;;;;;;2.40;1.40;;;;;;;25.49;25.70;97263.69;5069818;28;20459;-69
2022/06/01 09:36:54;;;;;;;1.90;1.20;;;;;;;25.37;25.15;97265.63;5066448;28;20462;-69
2022/06/01 09:39:20;;;;;;;1.83;0.97;;;;;;;25.47;25.40;97265.81;5037864;28;20487;-68
2022/06/01 09:41:46;;;;;;;3.63;1.10;;;;;;;25.23;25.04;97278.59;5053115;28;20457;-68
2022/06/01 09:44:18;;;;;;;1.47;1.13;;;;;;;25.64;25.04;97273.00;5068779;28;20555;-68
2022/06/01 09:46:47;;;;;;;2.60;1.20;;;;;;;25.64;24.73;97281.88;5068009;28;20444;-69
2022/06/01 09:49:32;;;;;;;2.80;1.30;;;;;;;25.74;25.19;97281.19;5069174;28;20946;-69
2022/06/01 09:52:02;;;;;;;1.40;1.10;;;;;;;25.82;24.57;97279.94;5059773;28;20954;-68
2022/06/01 09:54:30;;;;;;;2.13;1.27;;;;;;;25.77;24.92;97278.00;5069186;28;20443;-71
2022/06/01 09:56:56;;;;;;;3.27;1.30;;;;;;;25.60;24.55;97286.13;5060779;28;20429;-69
2022/06/01 10:07:46;;;;;;;2.60;1.37;;;;;;;26.04;23.92;97277.25;5058245;28;20459;-68
2022/06/01 10:10:22;;;;;;;1.77;1.10;;;;;;;25.99;24.47;97278.03;5070726;28;20919;-68
2022/06/01 10:12:54;;;;;;;1.87;1.10;;;;;;;25.88;23.96;97271.72;5070568;28;20265;-68
2022/06/01 10:15:40;;;;;;;2.93;1.40;;;;;;;25.88;23.89;97271.72;5069443;28;20444;-68
2022/06/01 10:18:27;;;;;;;1.70;0.97;;;;;;;26.19;24.49;97266.75;5068918;28;20519;-69
2022/06/01 10:21:13;;;;;;;1.20;1.10;;;;;;;26.42;23.58;97275.56;5069839;28;20946;-69
2022/06/01 10:23:50;;;;;;;1.93;1.20;;;;;;;26.67;23.98;97274.97;5062555;28;20444;-69
2022/06/01 10:26:23;;;;;;;2.83;1.30;;;;;;;26.71;22.06;97264.56;5062511;28;20515;-69
2022/06/01 10:28:54;;;;;;;1.80;1.20;;;;;;;26.93;22.33;97258.31;5069500;28;20463;-69
2022/06/01 10:31:31;;;;;;;2.90;1.20;;;;;;;27.09;22.22;97273.47;5048270;28;20798;-70
2022/06/01 10:34:09;;;;;;;1.50;1.20;;;;;;;27.32;22.01;97274.19;5070481;28;20445;-69
2022/06/01 10:36:56;;;;;;;1.77;1.20;;;;;;;27.47;21.89;97275.38;5052943;28;20433;-69
2022/06/01 10:39:42;;;;;;;3.10;1.37;;;;;;;27.07;20.97;97272.94;5053497;28;20553;-68
2022/06/01 10:42:17;;;;;;;3.30;1.00;;;;;;;27.34;21.65;97279.28;5050191;28;20434;-69
2022/06/01 10:45:05;;;;;;;2.13;0.90;;;;;;;27.41;21.20;97279.84;5062177;28;20463;-69
2022/06/01 10:47:30;;;;;;;1.33;1.20;;;;;;;27.43;21.02;97278.53;5069346;28;20924;-68
2022/06/01 10:50:06;;;;;;;1.00;0.90;;;;;;;27.73;21.25;97277.09;5070633;28;20429;-69
2022/06/01 10:52:34;;;;;;;3.13;1.20;;;;;;;27.95;20.59;97278.84;5070730;28;20644;-69
2022/06/01 10:55:08;;;;;;;2.77;1.13;;;;;;;27.88;20.67;97275.56;5070787;28;20463;-69
2022/06/01 10:57:39;;;;;;;1.30;1.00;;;;;;;27.97;21.68;97282.06;5069232;28;20953;-69
2022/06/01 11:00:06;;;;;;;2.80;1.10;;;;;;;28.04;21.32;97282.63;5062259;28;20508;-69
2022/06/01 11:03:06;;;;;;;1.10;1.00;;;;;;;28.09;21.33;97267.59;5070717;28;20433;-70
2022/06/01 11:05:39;;;;;;;3.23;1.10;;;;;;;28.18;21.40;97263.31;5069637;28;20919;-70
2022/06/01 11:08:30;;;;;;;1.87;1.20;;;;;;;28.31;21.21;97264.69;5069978;28;20463;-69
2022/06/01 11:11:30;;;;;;;2.60;1.30;;;;;;;28.39;21.66;97260.66;5061651;28;20433;-69
2022/06/01 11:14:03;;;;;;;3.10;1.20;;;;;;;28.76;20.67;97270.44;5073482;28;20475;-68
2022/06/01 11:16:41;;;;;;;3.00;1.27;;;;;;;28.90;19.70;97260.72;5072307;28;20487;-69
2022/06/01 11:19:28;;;;;;;2.50;1.13;;;;;;;28.87;19.98;97277.44;5073414;28;20433;-70
2022/06/01 11:22:24;;;;;;;1.10;0.93;;;;;;;29.03;19.25;97264.78;5073733;28;20879;-69
2022/06/01 11:25:08;;;;;;;1.40;1.00;;;;;;;29.10;18.96;97243.72;5063225;28;21034;-68
2022/06/01 11:27:53;;;;;;;2.50;1.10;;;;;;;29.24;19.84;97270.94;5057510;28;20498;-69
2022/06/01 11:30:20;;;;;;;1.77;1.20;;;;;;;29.13;20.00;97250.47;5060308;28;20438;-69
2022/06/01 11:32:49;;;;;;;2.27;0.87;;;;;;;29.02;20.24;97256.94;5073548;28;20433;-68
2022/06/01 11:35:29;;;;;;;2.03;1.07;;;;;;;28.71;19.93;97254.25;5066889;28;20465;-69
2022/06/01 11:38:17;;;;;;;1.60;1.10;;;;;;;28.48;20.55;97259.06;5053148;28;20436;-68
2022/06/01 11:40:54;;;;;;;1.50;1.00;;;;;;;28.15;20.66;97261.16;5051413;28;20509;-68
2022/06/01 11:43:36;;;;;;;1.90;1.00;;;;;;;27.54;20.26;97257.09;5071149;28;20424;-70
2022/06/01 11:46:16;;;;;;;2.07;1.10;;;;;;;27.44;20.96;97258.69;5071933;28;20429;-71
2022/06/01 11:48:50;;;;;;;1.83;0.90;;;;;;;27.63;20.26;97258.22;5071535;28;20870;-69
2022/06/01 11:51:18;;;;;;;2.60;1.00;;;;;;;27.88;20.86;97252.16;5072964;28;20440;-70
2022/06/01 11:54:04;;;;;;;1.83;1.00;;;;;;;27.69;20.30;97254.50;5067366;28;20448;-68
2022/06/01 11:56:30;;;;;;;2.30;0.93;;;;;;;27.92;20.01;97259.69;5065014;28;20420;-69
2022/06/01 11:59:03;;;;;;;1.30;1.20;;;;;;;28.18;20.46;97255.22;5065399;28;20434;-70
2022/06/01 12:01:35;;;;;;;1.47;1.07;;;;;;;28.27;20.45;97260.91;5059637;28;20238;-69
2022/06/01 12:04:19;;;;;;;3.43;1.43;;;;;;;28.43;20.32;97248.28;5073437;28;20498;-68
2022/06/01 12:06:50;;;;;;;1.43;1.23;;;;;;;28.77;20.16;97255.88;5072380;28;20490;-69
2022/06/01 12:09:26;;;;;;;2.50;1.20;;;;;;;29.04;20.07;97241.31;5064745;28;20426;-68
2022/06/01 12:11:52;;;;;;;2.23;1.20;;;;;;;28.44;20.16;97239.91;5071704;28;20421;-69
2022/06/01 12:14:20;;;;;;;2.77;1.20;;;;;;;29.07;20.72;97232.69;5071386;28;20963;-69
2022/06/01 12:16:46;;;;;;;1.70;1.17;;;;;;;29.47;20.22;97224.78;5064771;28;20190;-71